sensor_id;sensor_type;location;lat;lon;timestamp;pressure;altitude;pressure_sealevel;temperature;humidity
59757;BME280;45631;51.962;5.974;2023-03-16T00:00:09;101677.09;;;3.11;100.00
59757;BME280;45631;51.962;5.974;2023-03-16T00:02:40;101672.56;;;3.20;100.00
59757;BME280;45631;51.962;5.974;2023-03-16T00:05:09;101659.38;;;3.28;100.00
59757;BME280;45631;51.962;5.974;2023-03-16T00:07:39;101670.78;;;3.22;100.00
59757;BME280;45631;51.962;5.974;2023-03-16T00:10:10;101677.75;;;3.22;100.00
59757;BME280;45631;51.962;5.974;2023-03-16T00:12:39;101674.34;;;3.18;100.00
59757;BME280;45631;51.962;5.974;2023-03-16T00:15:11;101675.25;;;3.16;100.00
59757;BME280;45631;51.962;5.974;2023-03-16T00:17:40;101670.84;;;3.19;100.00
59757;BME280;45631;51.962;5.974;2023-03-16T00:20:09;101680.34;;;3.22;100.00
59757;BME280;45631;51.962;5.974;2023-03-16T00:22:39;101682.78;;;3.28;100.00
59757;BME280;45631;51.962;5.974;2023-03-16T00:25:08;101682.94;;;3.22;100.00
59757;BME280;45631;51.962;5.974;2023-03-16T00:27:37;101685.31;;;3.33;100.00
59757;BME280;45631;51.962;5.974;2023-03-16T00:30:06;101681.81;;;3.34;100.00
59757;BME280;45631;51.962;5.974;2023-03-16T00:32:37;101675.91;;;3.26;100.00
59757;BME280;45631;51.962;5.974;2023-03-16T00:35:06;101674.88;;;3.34;100.00
59757;BME280;45631;51.962;5.974;2023-03-16T00:37:35;101666.31;;;3.29;100.00
59757;BME280;45631;51.962;5.974;2023-03-16T00:40:07;101659.31;;;3.33;100.00
59757;BME280;45631;51.962;5.974;2023-03-16T00:42:37;101657.59;;;3.32;100.00
59757;BME280;45631;51.962;5.974;2023-03-16T00:45:07;101655.97;;;3.26;100.00
59757;BME280;45631;51.962;5.974;2023-03-16T00:47:37;101654.09;;;3.33;100.00
59757;BME280;45631;51.962;5.974;2023-03-16T00:50:06;101649.81;;;3.30;100.00
59757;BME280;45631;51.962;5.974;2023-03-16T00:52:34;101636.81;;;3.30;100.00
59757;BME280;45631;51.962;5.974;2023-03-16T00:55:03;101639.47;;;3.27;100.00
59757;BME280;45631;51.962;5.974;2023-03-16T00:57:32;101633.53;;;3.22;100.00
59757;BME280;45631;51.962;5.974;2023-03-16T01:00:00;101635.16;;;3.28;100.00
59757;BME280;45631;51.962;5.974;2023-03-16T01:02:40;101629.00;;;3.32;100.00
59757;BME280;45631;51.962;5.974;2023-03-16T01:05:09;101626.22;;;3.38;100.00
59757;BME280;45631;51.962;5.974;2023-03-16T01:07:39;101623.88;;;3.29;100.00
59757;BME280;45631;51.962;5.974;2023-03-16T01:10:10;101617.75;;;3.31;100.00
59757;BME280;45631;51.962;5.974;2023-03-16T01:12:38;101616.91;;;3.29;100.00
59757;BME280;45631;51.962;5.974;2023-03-16T01:15:09;101614.47;;;3.21;100.00
59757;BME280;45631;51.962;5.974;2023-03-16T01:17:37;101619.47;;;3.31;100.00
59757;BME280;45631;51.962;5.974;2023-03-16T01:20:10;101623.03;;;3.27;100.00
59757;BME280;45631;51.962;5.974;2023-03-16T01:22:40;101613.47;;;3.29;100.00
59757;BME280;45631;51.962;5.974;2023-03-16T01:25:10;101613.31;;;3.35;100.00
59757;BME280;45631;51.962;5.974;2023-03-16T01:27:39;101613.38;;;3.32;100.00
59757;BME280;45631;51.962;5.974;2023-03-16T01:30:09;101601.31;;;3.29;100.00
59757;BME280;45631;51.962;5.974;2023-03-16T01:32:39;101597.00;;;3.28;100.00
59757;BME280;45631;51.962;5.974;2023-03-16T01:35:09;101595.34;;;3.24;100.00
59757;BME280;45631;51.962;5.974;2023-03-16T01:37:37;101603.19;;;3.22;100.00
59757;BME280;45631;51.962;5.974;2023-03-16T01:40:07;101601.25;;;3.31;100.00
59757;BME280;45631;51.962;5.974;2023-03-16T01:42:44;101598.59;;;3.34;100.00
59757;BME280;45631;51.962;5.974;2023-03-16T01:48:21;101583.22;;;3.25;100.00
59757;BME280;45631;51.962;5.974;2023-03-16T01:50:54;101571.22;;;3.17;100.00
59757;BME280;45631;51.962;5.974;2023-03-16T01:53:25;101571.09;;;3.24;100.00
59757;BME280;45631;51.962;5.974;2023-03-16T01:55:53;101572.06;;;3.19;100.00
59757;BME280;45631;51.962;5.974;2023-03-16T01:58:22;101568.47;;;3.25;100.00
59757;BME280;45631;51.962;5.974;2023-03-16T02:00:50;101571.03;;;3.27;100.00
59757;BME280;45631;51.962;5.974;2023-03-16T02:03:20;101568.53;;;3.22;100.00
59757;BME280;45631;51.962;5.974;2023-03-16T02:05:54;101567.66;;;3.21;100.00
59757;BME280;45631;51.962;5.974;2023-03-16T02:08:26;101565.22;;;3.15;100.00
59757;BME280;45631;51.962;5.974;2023-03-16T02:10:55;101564.22;;;3.21;100.00
59757;BME280;45631;51.962;5.974;2023-03-16T02:13:24;101566.81;;;3.21;100.00
59757;BME280;45631;51.962;5.974;2023-03-16T02:15:55;101567.59;;;3.26;100.00
59757;BME280;45631;51.962;5.974;2023-03-16T02:18:24;101567.03;;;3.12;100.00
59757;BME280;45631;51.962;5.974;2023-03-16T02:20:57;101550.56;;;3.13;100.00
59757;BME280;45631;51.962;5.974;2023-03-16T02:23:28;101551.19;;;3.22;100.00
59757;BME280;45631;51.962;5.974;2023-03-16T02:26:02;101540.75;;;3.24;100.00
59757;BME280;45631;51.962;5.974;2023-03-16T02:28:37;101534.84;;;3.17;100.00
59757;BME280;45631;51.962;5.974;2023-03-16T02:31:23;101544.22;;;3.25;100.00
59757;BME280;45631;51.962;5.974;2023-03-16T02:33:53;101545.31;;;3.14;100.00
59757;BME280;45631;51.962;5.974;2023-03-16T02:36:23;101539.22;;;3.15;100.00
59757;BME280;45631;51.962;5.974;2023-03-16T02:38:51;101533.81;;;3.25;100.00
59757;BME280;45631;51.962;5.974;2023-03-16T02:41:20;101535.75;;;3.16;100.00
59757;BME280;45631;51.962;5.974;2023-03-16T02:43:51;101534.03;;;3.15;100.00
59757;BME280;45631;51.962;5.974;2023-03-16T02:46:24;101528.88;;;3.14;100.00
59757;BME280;45631;51.962;5.974;2023-03-16T02:48:58;101532.09;;;3.24;100.00
59757;BME280;45631;51.962;5.974;2023-03-16T02:51:30;101537.47;;;3.16;100.00
59757;BME280;45631;51.962;5.974;2023-03-16T02:53:59;101530.56;;;3.15;100.00
59757;BME280;45631;51.962;5.974;2023-03-16T02:56:27;101534.88;;;3.16;100.00
59757;BME280;45631;51.962;5.974;2023-03-16T02:58:56;101528.47;;;3.31;100.00
59757;BME280;45631;51.962;5.974;2023-03-16T03:01:25;101527.78;;;3.22;100.00
59757;BME280;45631;51.962;5.974;2023-03-16T03:03:54;101524.22;;;3.27;100.00
59757;BME280;45631;51.962;5.974;2023-03-16T03:06:22;101529.44;;;3.27;100.00
59757;BME280;45631;51.962;5.974;2023-03-16T03:08:51;101519.91;;;3.26;100.00
59757;BME280;45631;51.962;5.974;2023-03-16T03:11:19;101510.38;;;3.26;100.00
59757;BME280;45631;51.962;5.974;2023-03-16T03:13:48;101518.06;;;3.31;100.00
59757;BME280;45631;51.962;5.974;2023-03-16T03:16:16;101518.94;;;3.30;100.00
59757;BME280;45631;51.962;5.974;2023-03-16T03:18:46;101516.28;;;3.33;100.00
59757;BME280;45631;51.962;5.974;2023-03-16T03:21:15;101516.56;;;3.22;100.00
59757;BME280;45631;51.962;5.974;2023-03-16T03:23:43;101523.44;;;3.25;100.00
59757;BME280;45631;51.962;5.974;2023-03-16T03:26:13;101521.84;;;3.17;100.00
59757;BME280;45631;51.962;5.974;2023-03-16T03:28:42;101521.75;;;3.22;100.00
59757;BME280;45631;51.962;5.974;2023-03-16T03:31:15;101517.28;;;3.27;100.00
59757;BME280;45631;51.962;5.974;2023-03-16T03:33:44;101504.00;;;3.38;100.00
59757;BME280;45631;51.962;5.974;2023-03-16T03:36:14;101512.91;;;3.29;100.00
59757;BME280;45631;51.962;5.974;2023-03-16T03:38:43;101510.50;;;3.20;100.00
59757;BME280;45631;51.962;5.974;2023-03-16T03:41:11;101502.47;;;3.31;100.00
59757;BME280;45631;51.962;5.974;2023-03-16T03:43:40;101500.00;;;3.26;100.00
59757;BME280;45631;51.962;5.974;2023-03-16T03:46:08;101501.56;;;3.32;100.00
59757;BME280;45631;51.962;5.974;2023-03-16T03:48:37;101499.88;;;3.31;100.00
59757;BME280;45631;51.962;5.974;2023-03-16T03:51:05;101497.16;;;3.35;100.00
59757;BME280;45631;51.962;5.974;2023-03-16T03:53:35;101485.31;;;3.24;100.00
59757;BME280;45631;51.962;5.974;2023-03-16T03:56:05;101491.34;;;3.24;100.00
59757;BME280;45631;51.962;5.974;2023-03-16T03:58:33;101483.56;;;3.24;100.00
59757;BME280;45631;51.962;5.974;2023-03-16T04:01:02;101491.28;;;3.27;100.00
59757;BME280;45631;51.962;5.974;2023-03-16T04:03:30;101485.91;;;3.35;100.00
59757;BME280;45631;51.962;5.974;2023-03-16T04:05:59;101483.47;;;3.29;100.00
59757;BME280;45631;51.962;5.974;2023-03-16T04:08:27;101486.94;;;3.28;100.00
59757;BME280;45631;51.962;5.974;2023-03-16T04:10:57;101471.97;;;3.37;100.00
59757;BME280;45631;51.962;5.974;2023-03-16T04:13:26;101475.63;;;3.30;100.00
59757;BME280;45631;51.962;5.974;2023-03-16T04:15:58;101473.88;;;3.31;100.00
59757;BME280;45631;51.962;5.974;2023-03-16T04:18:29;101468.00;;;3.22;100.00
59757;BME280;45631;51.962;5.974;2023-03-16T04:21:04;101473.38;;;3.16;100.00
59757;BME280;45631;51.962;5.974;2023-03-16T04:23:33;101463.75;;;3.18;100.00
59757;BME280;45631;51.962;5.974;2023-03-16T04:26:03;101464.59;;;3.20;100.00
59757;BME280;45631;51.962;5.974;2023-03-16T04:28:32;101462.84;;;3.21;100.00
59757;BME280;45631;51.962;5.974;2023-03-16T04:31:00;101463.00;;;3.13;100.00
59757;BME280;45631;51.962;5.974;2023-03-16T04:33:29;101466.53;;;3.11;100.00
59757;BME280;45631;51.962;5.974;2023-03-16T04:35:58;101464.91;;;3.08;100.00
59757;BME280;45631;51.962;5.974;2023-03-16T04:38:28;101469.22;;;3.08;100.00
59757;BME280;45631;51.962;5.974;2023-03-16T04:41:00;101465.66;;;3.12;100.00
59757;BME280;45631;51.962;5.974;2023-03-16T04:43:30;101467.53;;;3.05;100.00
59757;BME280;45631;51.962;5.974;2023-03-16T04:46:00;101462.28;;;3.08;100.00
59757;BME280;45631;51.962;5.974;2023-03-16T04:48:30;101456.09;;;3.14;100.00
59757;BME280;45631;51.962;5.974;2023-03-16T04:50:59;101451.91;;;3.07;100.00
59757;BME280;45631;51.962;5.974;2023-03-16T04:53:30;101458.88;;;3.06;100.00
59757;BME280;45631;51.962;5.974;2023-03-16T04:55:59;101460.53;;;3.09;100.00
59757;BME280;45631;51.962;5.974;2023-03-16T04:58:27;101455.47;;;3.02;100.00
59757;BME280;45631;51.962;5.974;2023-03-16T05:00:57;101455.44;;;3.04;100.00
59757;BME280;45631;51.962;5.974;2023-03-16T05:03:25;101459.81;;;3.02;100.00
59757;BME280;45631;51.962;5.974;2023-03-16T05:05:54;101463.22;;;3.04;100.00
59757;BME280;45631;51.962;5.974;2023-03-16T05:08:22;101455.47;;;3.02;100.00
59757;BME280;45631;51.962;5.974;2023-03-16T05:10:55;101449.50;;;2.99;100.00
59757;BME280;45631;51.962;5.974;2023-03-16T05:13:24;101441.81;;;2.94;100.00
59757;BME280;45631;51.962;5.974;2023-03-16T05:15:52;101451.19;;;3.00;100.00
59757;BME280;45631;51.962;5.974;2023-03-16T05:18:22;101440.97;;;2.94;100.00
59757;BME280;45631;51.962;5.974;2023-03-16T05:20:51;101439.16;;;2.96;100.00
59757;BME280;45631;51.962;5.974;2023-03-16T05:23:22;101439.97;;;2.99;100.00
59757;BME280;45631;51.962;5.974;2023-03-16T05:25:50;101450.31;;;3.01;100.00
59757;BME280;45631;51.962;5.974;2023-03-16T05:28:19;101447.69;;;3.02;100.00
59757;BME280;45631;51.962;5.974;2023-03-16T05:30:47;101451.91;;;3.08;100.00
59757;BME280;45631;51.962;5.974;2023-03-16T05:33:17;101457.16;;;3.05;100.00
59757;BME280;45631;51.962;5.974;2023-03-16T05:35:49;101459.72;;;3.07;100.00
59757;BME280;45631;51.962;5.974;2023-03-16T05:38:18;101459.13;;;2.95;100.00
59757;BME280;45631;51.962;5.974;2023-03-16T05:40:47;101456.34;;;3.03;100.00
59757;BME280;45631;51.962;5.974;2023-03-16T05:43:19;101449.50;;;2.99;100.00
59757;BME280;45631;51.962;5.974;2023-03-16T05:45:47;101442.53;;;3.01;100.00
59757;BME280;45631;51.962;5.974;2023-03-16T05:48:16;101445.88;;;3.06;100.00
59757;BME280;45631;51.962;5.974;2023-03-16T05:50:44;101431.88;;;3.12;100.00
59757;BME280;45631;51.962;5.974;2023-03-16T05:53:14;101438.19;;;3.01;100.00
59757;BME280;45631;51.962;5.974;2023-03-16T05:55:43;101441.63;;;3.02;100.00
59757;BME280;45631;51.962;5.974;2023-03-16T05:58:11;101447.72;;;3.01;100.00
59757;BME280;45631;51.962;5.974;2023-03-16T06:00:39;101456.38;;;3.01;100.00
59757;BME280;45631;51.962;5.974;2023-03-16T06:03:10;101442.25;;;3.12;100.00
59757;BME280;45631;51.962;5.974;2023-03-16T06:05:39;101446.69;;;3.08;100.00
59757;BME280;45631;51.962;5.974;2023-03-16T06:08:07;101441.28;;;3.16;100.00
59757;BME280;45631;51.962;5.974;2023-03-16T06:10:37;101440.63;;;3.08;100.00
59757;BME280;45631;51.962;5.974;2023-03-16T06:13:06;101439.56;;;3.16;100.00
59757;BME280;45631;51.962;5.974;2023-03-16T06:15:34;101444.78;;;3.16;100.00
59757;BME280;45631;51.962;5.974;2023-03-16T06:18:03;101434.81;;;3.32;100.00
59757;BME280;45631;51.962;5.974;2023-03-16T06:20:31;101442.66;;;3.31;100.00
59757;BME280;45631;51.962;5.974;2023-03-16T06:23:00;101437.66;;;3.23;100.00
59757;BME280;45631;51.962;5.974;2023-03-16T06:25:29;101434.88;;;3.31;100.00
59757;BME280;45631;51.962;5.974;2023-03-16T06:28:02;101432.31;;;3.29;100.00
59757;BME280;45631;51.962;5.974;2023-03-16T06:30:30;101424.84;;;3.15;100.00
59757;BME280;45631;51.962;5.974;2023-03-16T06:32:59;101435.91;;;3.24;100.00
59757;BME280;45631;51.962;5.974;2023-03-16T06:35:28;101426.63;;;3.13;100.00
59757;BME280;45631;51.962;5.974;2023-03-16T06:37:56;101436.13;;;3.14;100.00
59757;BME280;45631;51.962;5.974;2023-03-16T06:40:25;101423.75;;;3.24;100.00
59757;BME280;45631;51.962;5.974;2023-03-16T06:42:54;101432.38;;;3.26;100.00
59757;BME280;45631;51.962;5.974;2023-03-16T06:45:23;101429.00;;;3.22;100.00
59757;BME280;45631;51.962;5.974;2023-03-16T06:47:52;101427.06;;;3.31;100.00
59757;BME280;45631;51.962;5.974;2023-03-16T06:50:21;101431.38;;;3.32;100.00
59757;BME280;45631;51.962;5.974;2023-03-16T06:52:49;101431.50;;;3.26;100.00
59757;BME280;45631;51.962;5.974;2023-03-16T06:55:18;101427.25;;;3.23;100.00
59757;BME280;45631;51.962;5.974;2023-03-16T06:57:46;101430.38;;;3.37;100.00
59757;BME280;45631;51.962;5.974;2023-03-16T07:00:15;101427.41;;;3.51;100.00
59757;BME280;45631;51.962;5.974;2023-03-16T07:02:45;101443.19;;;3.45;100.00
59757;BME280;45631;51.962;5.974;2023-03-16T07:05:14;101432.69;;;3.48;100.00
59757;BME280;45631;51.962;5.974;2023-03-16T07:07:43;101441.38;;;3.47;100.00
59757;BME280;45631;51.962;5.974;2023-03-16T07:10:12;101447.69;;;3.38;100.00
59757;BME280;45631;51.962;5.974;2023-03-16T07:12:41;101436.50;;;3.35;100.00
59757;BME280;45631;51.962;5.974;2023-03-16T07:15:11;101436.56;;;3.32;100.00
59757;BME280;45631;51.962;5.974;2023-03-16T07:17:40;101436.56;;;3.32;100.00
59757;BME280;45631;51.962;5.974;2023-03-16T07:20:11;101440.81;;;3.36;100.00
59757;BME280;45631;51.962;5.974;2023-03-16T07:22:40;101436.34;;;3.41;100.00
59757;BME280;45631;51.962;5.974;2023-03-16T07:25:10;101431.84;;;3.46;100.00
59757;BME280;45631;51.962;5.974;2023-03-16T07:27:39;101425.53;;;3.57;100.00
59757;BME280;45631;51.962;5.974;2023-03-16T07:30:11;101428.22;;;3.53;100.00
59757;BME280;45631;51.962;5.974;2023-03-16T07:32:40;101435.16;;;3.53;100.00
59757;BME280;45631;51.962;5.974;2023-03-16T07:35:10;101434.13;;;3.60;100.00
59757;BME280;45631;51.962;5.974;2023-03-16T07:37:39;101449.06;;;3.52;100.00
59757;BME280;45631;51.962;5.974;2023-03-16T07:40:09;101441.00;;;3.61;100.00
59757;BME280;45631;51.962;5.974;2023-03-16T07:42:38;101445.47;;;3.58;100.00
59757;BME280;45631;51.962;5.974;2023-03-16T07:45:08;101439.19;;;3.65;100.00
59757;BME280;45631;51.962;5.974;2023-03-16T07:47:38;101432.97;;;3.70;100.00
59757;BME280;45631;51.962;5.974;2023-03-16T07:50:08;101434.69;;;3.71;100.00
59757;BME280;45631;51.962;5.974;2023-03-16T07:52:38;101438.94;;;3.74;100.00
59757;BME280;45631;51.962;5.974;2023-03-16T07:55:07;101426.66;;;3.79;100.00
59757;BME280;45631;51.962;5.974;2023-03-16T07:57:36;101426.66;;;3.79;100.00
59757;BME280;45631;51.962;5.974;2023-03-16T08:00:07;101427.41;;;3.83;100.00
59757;BME280;45631;51.962;5.974;2023-03-16T08:02:36;101431.78;;;3.82;100.00
59757;BME280;45631;51.962;5.974;2023-03-16T08:05:04;101430.03;;;3.83;100.00
59757;BME280;45631;51.962;5.974;2023-03-16T08:07:36;101421.38;;;3.82;100.00
59757;BME280;45631;51.962;5.974;2023-03-16T08:10:07;101418.88;;;3.79;100.00
59757;BME280;45631;51.962;5.974;2023-03-16T08:12:35;101419.63;;;3.83;100.00
59757;BME280;45631;51.962;5.974;2023-03-16T08:15:05;101419.66;;;3.81;100.00
59757;BME280;45631;51.962;5.974;2023-03-16T08:17:34;101419.41;;;3.91;100.00
59757;BME280;45631;51.962;5.974;2023-03-16T08:20:04;101420.19;;;3.93;100.00
59757;BME280;45631;51.962;5.974;2023-03-16T08:22:36;101415.00;;;3.93;100.00
59757;BME280;45631;51.962;5.974;2023-03-16T08:25:07;101421.91;;;3.94;100.00
59757;BME280;45631;51.962;5.974;2023-03-16T08:27:36;101425.41;;;3.94;100.00
59757;BME280;45631;51.962;5.974;2023-03-16T08:30:07;101432.28;;;3.95;100.00
59757;BME280;45631;51.962;5.974;2023-03-16T08:32:38;101432.16;;;4.00;100.00
59757;BME280;45631;51.962;5.974;2023-03-16T08:35:09;101424.22;;;4.04;100.00
59757;BME280;45631;51.962;5.974;2023-03-16T08:37:39;101428.28;;;4.15;100.00
59757;BME280;45631;51.962;5.974;2023-03-16T08:40:11;101420.41;;;4.16;100.00
59757;BME280;45631;51.962;5.974;2023-03-16T08:42:42;101416.94;;;4.17;100.00
59757;BME280;45631;51.962;5.974;2023-03-16T08:45:11;101406.22;;;4.27;100.00
59757;BME280;45631;51.962;5.974;2023-03-16T08:47:41;101406.09;;;4.31;100.00
59757;BME280;45631;51.962;5.974;2023-03-16T08:50:10;101409.41;;;4.36;100.00
59757;BME280;45631;51.962;5.974;2023-03-16T08:52:39;101406.63;;;4.43;100.00
59757;BME280;45631;51.962;5.974;2023-03-16T08:55:10;101409.88;;;4.49;100.00
59757;BME280;45631;51.962;5.974;2023-03-16T08:57:39;101405.66;;;4.45;100.00
59757;BME280;45631;51.962;5.974;2023-03-16T09:00:08;101407.09;;;4.55;100.00
59757;BME280;45631;51.962;5.974;2023-03-16T09:02:40;101405.28;;;4.57;100.00
59757;BME280;45631;51.962;5.974;2023-03-16T09:05:10;101401.69;;;4.62;100.00
59757;BME280;45631;51.962;5.974;2023-03-16T09:07:39;101392.13;;;4.62;100.00
59757;BME280;45631;51.962;5.974;2023-03-16T09:10:11;101380.66;;;4.68;100.00
59757;BME280;45631;51.962;5.974;2023-03-16T09:12:42;101384.72;;;4.77;100.00
59757;BME280;45631;51.962;5.974;2023-03-16T09:15:11;101386.38;;;4.79;100.00
59757;BME280;45631;51.962;5.974;2023-03-16T09:17:41;101384.38;;;4.87;100.00
59757;BME280;45631;51.962;5.974;2023-03-16T09:20:12;101389.69;;;4.84;100.00
59757;BME280;45631;51.962;5.974;2023-03-16T09:22:52;101375.72;;;4.87;100.00
59757;BME280;45631;51.962;5.974;2023-03-16T09:25:22;101377.16;;;4.96;100.00
59757;BME280;45631;51.962;5.974;2023-03-16T09:27:51;101376.16;;;5.00;100.00
59757;BME280;45631;51.962;5.974;2023-03-16T09:30:20;101376.78;;;5.06;100.00
59757;BME280;45631;51.962;5.974;2023-03-16T09:32:48;101379.41;;;5.06;100.00
59757;BME280;45631;51.962;5.974;2023-03-16T09:35:17;101371.47;;;5.10;100.00
59757;BME280;45631;51.962;5.974;2023-03-16T09:37:46;101380.81;;;5.17;100.00
59757;BME280;45631;51.962;5.974;2023-03-16T09:40:34;101377.91;;;5.24;100.00
59757;BME280;45631;51.962;5.974;2023-03-16T09:43:19;101386.38;;;5.31;100.00
59757;BME280;45631;51.962;5.974;2023-03-16T09:45:57;101379.91;;;5.43;100.00
59757;BME280;45631;51.962;5.974;2023-03-16T09:48:31;101377.94;;;5.50;100.00
59757;BME280;45631;51.962;5.974;2023-03-16T09:51:01;101364.03;;;5.49;100.00
59757;BME280;45631;51.962;5.974;2023-03-16T09:53:33;101373.44;;;5.53;100.00
59757;BME280;45631;51.962;5.974;2023-03-16T09:56:08;101366.25;;;5.60;100.00
59757;BME280;45631;51.962;5.974;2023-03-16T09:58:37;101364.34;;;5.65;100.00
59757;BME280;45631;51.962;5.974;2023-03-16T10:01:12;101360.88;;;5.65;100.00
59757;BME280;45631;51.962;5.974;2023-03-16T10:03:57;101366.81;;;5.68;100.00
59757;BME280;45631;51.962;5.974;2023-03-16T10:06:29;101358.03;;;5.71;100.00
59757;BME280;45631;51.962;5.974;2023-03-16T10:09:06;101361.53;;;5.70;100.00
59757;BME280;45631;51.962;5.974;2023-03-16T10:11:43;101362.28;;;5.73;100.00
59757;BME280;45631;51.962;5.974;2023-03-16T10:14:19;101354.00;;;5.86;100.00
59757;BME280;45631;51.962;5.974;2023-03-16T10:16:52;101350.00;;;5.77;100.00
59757;BME280;45631;51.962;5.974;2023-03-16T10:19:32;101356.34;;;5.93;100.00
59757;BME280;45631;51.962;5.974;2023-03-16T10:22:07;101350.16;;;5.96;100.00
59757;BME280;45631;51.962;5.974;2023-03-16T10:24:43;101344.56;;;6.07;100.00
59757;BME280;45631;51.962;5.974;2023-03-16T10:27:19;101346.75;;;6.18;100.00
59757;BME280;45631;51.962;5.974;2023-03-16T10:29:50;101337.41;;;6.34;100.00
59757;BME280;45631;51.962;5.974;2023-03-16T10:32:18;101334.38;;;6.45;100.00
59757;BME280;45631;51.962;5.974;2023-03-16T10:34:52;101347.47;;;6.66;100.00
59757;BME280;45631;51.962;5.974;2023-03-16T10:37:23;101335.56;;;6.81;100.00
59757;BME280;45631;51.962;5.974;2023-03-16T10:39:52;101323.72;;;7.13;100.00
59757;BME280;45631;51.962;5.974;2023-03-16T10:42:24;101321.31;;;7.48;100.00
59757;BME280;45631;51.962;5.974;2023-03-16T10:44:56;101326.56;;;7.67;100.00
59757;BME280;45631;51.962;5.974;2023-03-16T10:47:29;101322.78;;;7.74;100.00
59757;BME280;45631;51.962;5.974;2023-03-16T10:49:58;101315.34;;;7.84;100.00
59757;BME280;45631;51.962;5.974;2023-03-16T10:52:42;101318.47;;;7.92;100.00
59757;BME280;45631;51.962;5.974;2023-03-16T10:55:16;101321.66;;;7.99;100.00
59757;BME280;45631;51.962;5.974;2023-03-16T10:57:51;101318.97;;;8.01;100.00
59757;BME280;45631;51.962;5.974;2023-03-16T11:00:25;101315.03;;;8.09;100.00
59757;BME280;45631;51.962;5.974;2023-03-16T11:02:55;101302.19;;;8.41;100.00
59757;BME280;45631;51.962;5.974;2023-03-16T11:05:28;101289.09;;;8.76;100.00
59757;BME280;45631;51.962;5.974;2023-03-16T11:08:00;101290.34;;;9.04;100.00
59757;BME280;45631;51.962;5.974;2023-03-16T11:10:31;101305.13;;;9.23;100.00
59757;BME280;45631;51.962;5.974;2023-03-16T11:13:17;101303.47;;;9.38;100.00
59757;BME280;45631;51.962;5.974;2023-03-16T11:15:49;101292.03;;;9.39;100.00
59757;BME280;45631;51.962;5.974;2023-03-16T11:18:27;101295.09;;;9.47;100.00
59757;BME280;45631;51.962;5.974;2023-03-16T11:21:01;101279.13;;;9.52;100.00
59757;BME280;45631;51.962;5.974;2023-03-16T11:23:33;101289.69;;;9.50;100.00
59757;BME280;45631;51.962;5.974;2023-03-16T11:26:10;101285.00;;;9.39;100.00
59757;BME280;45631;51.962;5.974;2023-03-16T11:28:47;101277.69;;;9.62;100.00
59757;BME280;45631;51.962;5.974;2023-03-16T11:31:24;101276.78;;;9.79;100.00
59757;BME280;45631;51.962;5.974;2023-03-16T11:33:56;101271.94;;;9.87;100.00
59757;BME280;45631;51.962;5.974;2023-03-16T11:36:37;101262.59;;;9.97;99.83
59757;BME280;45631;51.962;5.974;2023-03-16T11:39:15;101272.50;;;9.92;96.57
59757;BME280;45631;51.962;5.974;2023-03-16T11:41:56;101269.56;;;9.82;99.77
59757;BME280;45631;51.962;5.974;2023-03-16T11:44:32;101264.56;;;9.78;98.13
59757;BME280;45631;51.962;5.974;2023-03-16T11:47:25;101260.00;;;9.66;99.25
59757;BME280;45631;51.962;5.974;2023-03-16T11:50:00;101254.28;;;9.73;97.57
59757;BME280;45631;51.962;5.974;2023-03-16T11:52:44;101243.38;;;9.81;97.92
59757;BME280;45631;51.962;5.974;2023-03-16T11:55:24;101244.06;;;9.69;98.35
59757;BME280;45631;51.962;5.974;2023-03-16T11:58:05;101238.81;;;9.69;97.69
59757;BME280;45631;51.962;5.974;2023-03-16T12:00:45;101228.47;;;9.66;96.56
59757;BME280;45631;51.962;5.974;2023-03-16T12:03:29;101232.88;;;9.65;96.50
59757;BME280;45631;51.962;5.974;2023-03-16T12:06:01;101219.31;;;9.73;97.47
59757;BME280;45631;51.962;5.974;2023-03-16T12:12:11;101212.69;;;9.97;96.90
59757;BME280;45631;51.962;5.974;2023-03-16T12:14:49;101217.34;;;9.92;96.45
59757;BME280;45631;51.962;5.974;2023-03-16T12:17:24;101223.69;;;10.04;97.38
59757;BME280;45631;51.962;5.974;2023-03-16T12:19:57;101212.75;;;10.12;99.20
59757;BME280;45631;51.962;5.974;2023-03-16T12:22:32;101208.84;;;10.19;97.73
59757;BME280;45631;51.962;5.974;2023-03-16T12:25:02;101197.09;;;10.41;97.19
59757;BME280;45631;51.962;5.974;2023-03-16T12:27:35;101198.03;;;10.40;95.06
59757;BME280;45631;51.962;5.974;2023-03-16T12:30:21;101188.59;;;10.52;95.97
59757;BME280;45631;51.962;5.974;2023-03-16T12:32:57;101176.47;;;10.49;91.79
59757;BME280;45631;51.962;5.974;2023-03-16T12:35:35;101165.19;;;10.61;88.13
59757;BME280;45631;51.962;5.974;2023-03-16T12:38:18;101173.13;;;10.76;90.56
59757;BME280;45631;51.962;5.974;2023-03-16T12:40:57;101168.97;;;11.01;88.45
59757;BME280;45631;51.962;5.974;2023-03-16T12:43:44;101170.84;;;11.13;89.02
59757;BME280;45631;51.962;5.974;2023-03-16T12:46:22;101168.19;;;11.27;88.50
59757;BME280;45631;51.962;5.974;2023-03-16T12:48:58;101163.25;;;11.77;85.67
59757;BME280;45631;51.962;5.974;2023-03-16T12:51:34;101158.66;;;11.94;81.87
59757;BME280;45631;51.962;5.974;2023-03-16T12:54:03;101143.19;;;12.42;82.06
59757;BME280;45631;51.962;5.974;2023-03-16T12:56:35;101137.50;;;12.61;79.45
59757;BME280;45631;51.962;5.974;2023-03-16T12:59:15;101137.69;;;12.58;77.71
59757;BME280;45631;51.962;5.974;2023-03-16T13:01:48;101144.97;;;12.67;76.56
59757;BME280;45631;51.962;5.974;2023-03-16T13:04:20;101144.72;;;12.96;76.33
59757;BME280;45631;51.962;5.974;2023-03-16T13:06:59;101140.31;;;12.97;74.65
59757;BME280;45631;51.962;5.974;2023-03-16T13:09:33;101132.63;;;13.31;74.08
59757;BME280;45631;51.962;5.974;2023-03-16T13:12:03;101132.75;;;13.53;72.83
59757;BME280;45631;51.962;5.974;2023-03-16T13:14:38;101127.47;;;13.78;70.63
59757;BME280;45631;51.962;5.974;2023-03-16T13:17:23;101119.84;;;13.97;69.82